createdAt,value
2022-10-03T00:00:21.566Z,97543.00
2022-10-03T00:03:16.050Z,97543.00
2022-10-03T00:06:14.737Z,97545.00
2022-10-03T00:09:18.799Z,97545.00
2022-10-03T00:12:05.936Z,97549.00
2022-10-03T00:15:04.339Z,97553.00
2022-10-03T00:18:02.150Z,97551.00
2022-10-03T00:21:08.577Z,97568.00
2022-10-03T00:24:16.489Z,97560.00
2022-10-03T00:27:07.709Z,97563.00
2022-10-03T00:29:59.047Z,97560.00
2022-10-03T00:33:08.217Z,97570.00
2022-10-03T00:36:06.977Z,97556.00
2022-10-03T00:39:02.645Z,97557.00
2022-10-03T00:41:56.713Z,97569.00
2022-10-03T00:45:08.735Z,97562.00
2022-10-03T00:48:26.554Z,97572.00
2022-10-03T00:51:26.927Z,97576.00
2022-10-03T00:53:53.577Z,97567.00
2022-10-03T00:57:14.232Z,97582.00
2022-10-03T01:00:12.484Z,97587.00
2022-10-03T01:03:00.125Z,97578.00
2022-10-03T01:05:51.812Z,97590.00
2022-10-03T01:08:52.192Z,97593.00
2022-10-03T01:12:01.578Z,97589.00
2022-10-03T01:14:56.452Z,97588.00
2022-10-03T01:17:47.934Z,97600.00
2022-10-03T01:20:41.392Z,97584.00
2022-10-03T01:23:29.261Z,97589.00
2022-10-03T01:26:29.886Z,97590.00
2022-10-03T01:29:38.097Z,97591.00
2022-10-03T01:32:17.331Z,97599.00
2022-10-03T01:35:11.915Z,97604.00
2022-10-03T01:38:20.360Z,97602.00
2022-10-03T01:41:26.355Z,97591.00
2022-10-03T01:44:32.857Z,97590.00
2022-10-03T01:47:22.910Z,97603.00
2022-10-03T01:50:08.971Z,97600.00
2022-10-03T01:53:03.942Z,97604.00
2022-10-03T01:55:39.225Z,97616.00
2022-10-03T01:58:28.733Z,97616.00
2022-10-03T02:01:20.511Z,97621.00
2022-10-03T02:04:06.784Z,97629.00
2022-10-03T02:07:12.459Z,97626.00
2022-10-03T02:10:07.278Z,97629.00
2022-10-03T02:13:07.061Z,97639.00
2022-10-03T02:16:30.975Z,97646.00
2022-10-03T02:19:10.989Z,97644.00
2022-10-03T02:21:51.729Z,97647.00
2022-10-03T02:24:39.636Z,97642.00
2022-10-03T02:27:47.166Z,97648.00
2022-10-03T02:30:21.579Z,97646.00
2022-10-03T02:33:38.730Z,97647.00
2022-10-03T02:36:55.728Z,97644.00
2022-10-03T02:39:55.313Z,97640.00
2022-10-03T02:43:06.001Z,97642.00
2022-10-03T02:45:53.791Z,97647.00
2022-10-03T02:48:59.511Z,97662.00
2022-10-03T02:51:56.354Z,97657.00
2022-10-03T02:54:34.995Z,97667.00
2022-10-03T02:57:51.745Z,97667.00
2022-10-03T03:00:42.684Z,97672.00
2022-10-03T03:03:49.754Z,97673.00
2022-10-03T03:06:49.134Z,97670.00
2022-10-03T03:09:44.915Z,97674.00
2022-10-03T03:12:39.120Z,97684.00
2022-10-03T03:15:49.126Z,97679.00
2022-10-03T03:18:37.113Z,97673.00
2022-10-03T03:21:30.992Z,97679.00
2022-10-03T03:24:26.366Z,97685.00
2022-10-03T03:27:17.889Z,97681.00
2022-10-03T03:30:34.581Z,97684.00
2022-10-03T03:33:12.373Z,97686.00
2022-10-03T03:35:57.482Z,97682.00
2022-10-03T03:38:47.082Z,97688.00
2022-10-03T03:41:51.916Z,97693.00
2022-10-03T03:44:54.225Z,97695.00
2022-10-03T03:47:30.243Z,97684.00
2022-10-03T03:50:27.522Z,97700.00
2022-10-03T03:53:31.634Z,97694.00
2022-10-03T03:56:33.597Z,97700.00
2022-10-03T03:59:15.228Z,97702.00
2022-10-03T04:02:29.717Z,97694.00
2022-10-03T04:05:34.901Z,97703.00
2022-10-03T04:08:42.228Z,97703.00
2022-10-03T04:11:37.944Z,97707.00
2022-10-03T04:14:53.149Z,97699.00
2022-10-03T04:18:19.189Z,97701.00
2022-10-03T04:21:23.742Z,97705.00
2022-10-03T04:24:22.555Z,97706.00
2022-10-03T04:27:29.272Z,97711.00
2022-10-03T04:30:17.746Z,97711.00
2022-10-03T04:33:19.049Z,97718.00
2022-10-03T04:36:13.478Z,97717.00
2022-10-03T04:39:04.919Z,97716.00
2022-10-03T04:41:53.536Z,97719.00
2022-10-03T04:45:01.391Z,97715.00
2022-10-03T04:47:59.991Z,97720.00
2022-10-03T04:51:03.693Z,97717.00
2022-10-03T04:53:58.295Z,97714.00
2022-10-03T04:56:33.837Z,97718.00
2022-10-03T04:59:54.718Z,97717.00
2022-10-03T05:02:51.925Z,97718.00
2022-10-03T05:05:40.085Z,97726.00
2022-10-03T05:08:50.073Z,97725.00
2022-10-03T05:12:00.197Z,97723.00
2022-10-03T05:15:12.714Z,97724.00
2022-10-03T05:17:51.430Z,97731.00
2022-10-03T05:21:02.845Z,97721.00
2022-10-03T05:24:02.705Z,97731.00
2022-10-03T05:26:45.833Z,97735.00
2022-10-03T05:29:38.908Z,97731.00
2022-10-03T05:32:23.665Z,97737.00
2022-10-03T05:35:31.921Z,97735.00
2022-10-03T05:38:44.360Z,97753.00
2022-10-03T05:41:17.251Z,97749.00
2022-10-03T05:43:58.325Z,97745.00
2022-10-03T05:46:58.447Z,97760.00
2022-10-03T05:50:12.443Z,97756.00
2022-10-03T05:52:59.243Z,97756.00
2022-10-03T05:55:59.467Z,97765.00
2022-10-03T05:58:44.720Z,97759.00
2022-10-03T06:01:43.349Z,97774.00
2022-10-03T06:04:49.475Z,97774.00
2022-10-03T06:07:45.746Z,97770.00
2022-10-03T06:10:43.926Z,97774.00
2022-10-03T06:14:07.947Z,97776.00
2022-10-03T06:16:44.304Z,97780.00
2022-10-03T06:19:36.842Z,97780.00
2022-10-03T06:23:00.409Z,97783.00
2022-10-03T06:26:10.583Z,97788.00
2022-10-03T06:29:14.523Z,97779.00
2022-10-03T06:32:25.811Z,97786.00
2022-10-03T06:35:14.513Z,97784.00
2022-10-03T06:38:15.066Z,97794.00
2022-10-03T06:41:29.609Z,97790.00
2022-10-03T06:44:15.331Z,97791.00
2022-10-03T06:46:59.118Z,97797.00
2022-10-03T06:50:00.713Z,97806.00
2022-10-03T06:52:49.642Z,97798.00
2022-10-03T06:55:44.277Z,97803.00
2022-10-03T06:58:45.724Z,97800.00
2022-10-03T07:01:12.404Z,97801.00
2022-10-03T07:04:27.192Z,97802.00
2022-10-03T07:07:38.831Z,97803.00
2022-10-03T07:10:56.567Z,97811.00
2022-10-03T07:13:35.061Z,97809.00
2022-10-03T07:16:29.519Z,97821.00
2022-10-03T07:19:44.214Z,97822.00
2022-10-03T07:22:54.066Z,97821.00
2022-10-03T07:26:24.408Z,97827.00
2022-10-03T07:29:14.377Z,97820.00
2022-10-03T07:32:20.330Z,97827.00
2022-10-03T07:35:23.447Z,97836.00
2022-10-03T07:38:55.959Z,97835.00
2022-10-03T07:42:00.928Z,97837.00
2022-10-03T07:44:51.709Z,97842.00
2022-10-03T07:48:18.384Z,97843.00
2022-10-03T07:51:17.140Z,97841.00
2022-10-03T07:54:06.958Z,97839.00
2022-10-03T07:57:03.995Z,97850.00
2022-10-03T08:00:06.711Z,97853.00
2022-10-03T08:02:57.195Z,97861.00
2022-10-03T08:06:18.374Z,97856.00
2022-10-03T08:09:56.066Z,97863.00
2022-10-03T08:13:06.002Z,97860.00
2022-10-03T08:16:04.833Z,97866.00
2022-10-03T08:18:59.319Z,97862.00
2022-10-03T08:21:48.617Z,97873.00
2022-10-03T08:25:03.053Z,97870.00
2022-10-03T08:27:46.296Z,97867.00
2022-10-03T08:30:25.430Z,97863.00
2022-10-03T08:33:21.938Z,97863.00
2022-10-03T08:35:57.461Z,97871.00
2022-10-03T08:39:00.457Z,97875.00
2022-10-03T08:42:07.909Z,97867.00
2022-10-03T08:45:30.782Z,97865.00
2022-10-03T08:48:34.847Z,97853.00
2022-10-03T08:51:47.841Z,97864.00
2022-10-03T08:55:06.467Z,97867.00
2022-10-03T08:58:25.866Z,97863.00
2022-10-03T09:01:16.635Z,97874.00
2022-10-03T09:04:27.126Z,97872.00
2022-10-03T09:07:57.372Z,97876.00
2022-10-03T09:10:54.577Z,97885.00
2022-10-03T09:14:10.937Z,97887.00
2022-10-03T09:17:17.557Z,97885.00
2022-10-03T09:20:10.298Z,97883.00
2022-10-03T09:23:00.925Z,97884.00
2022-10-03T09:26:02.716Z,97888.00
2022-10-03T09:29:10.598Z,97876.00
2022-10-03T09:32:39.563Z,97897.00
2022-10-03T09:35:46.703Z,97897.00
2022-10-03T09:38:38.326Z,97898.00
2022-10-03T09:41:44.093Z,97888.00
2022-10-03T09:44:47.493Z,97897.00
2022-10-03T09:47:59.200Z,97890.00
2022-10-03T09:50:47.131Z,97900.00
2022-10-03T09:53:45.313Z,97897.00
2022-10-03T09:56:55.168Z,97899.00
2022-10-03T09:59:52.405Z,97897.00
2022-10-03T10:03:06.731Z,97882.00
2022-10-03T10:05:49.703Z,97877.00
2022-10-03T10:08:48.578Z,97883.00
2022-10-03T10:11:56.478Z,97884.00
2022-10-03T10:14:39.758Z,97884.00
2022-10-03T10:17:37.428Z,97883.00
2022-10-03T10:20:45.695Z,97882.00
2022-10-03T10:23:18.306Z,97872.00
2022-10-03T10:26:29.356Z,97874.00
2022-10-03T10:29:27.226Z,97885.00
2022-10-03T10:32:02.654Z,97880.00
2022-10-03T10:35:45.639Z,97875.00
2022-10-03T10:38:34.412Z,97875.00
2022-10-03T10:41:59.328Z,97878.00
2022-10-03T10:45:11.296Z,97875.00
2022-10-03T10:48:16.824Z,97874.00
2022-10-03T10:51:43.932Z,97879.00
2022-10-03T10:54:37.693Z,97882.00
2022-10-03T10:57:34.618Z,97884.00
2022-10-03T11:00:59.523Z,97884.00
2022-10-03T11:04:26.136Z,97889.00
2022-10-03T11:07:23.377Z,97888.00
2022-10-03T11:10:31.027Z,97890.00
2022-10-03T11:13:41.448Z,97885.00
2022-10-03T11:17:17.473Z,97886.00
2022-10-03T11:20:02.697Z,97897.00
2022-10-03T11:23:34.966Z,97887.00
2022-10-03T11:26:29.348Z,97889.00
2022-10-03T11:29:27.358Z,97891.00
2022-10-03T11:32:43.090Z,97894.00
2022-10-03T11:35:30.874Z,97894.00
2022-10-03T11:38:30.226Z,97883.00
2022-10-03T11:41:39.160Z,97892.00
2022-10-03T11:44:15.423Z,97893.00
2022-10-03T11:46:47.620Z,97892.00
2022-10-03T11:49:54.737Z,97892.00
2022-10-03T11:52:32.065Z,97894.00
2022-10-03T11:55:13.668Z,97903.00
2022-10-03T11:57:44.138Z,97895.00
2022-10-03T12:00:17.275Z,97886.00
2022-10-03T12:03:13.850Z,97889.00
2022-10-03T12:05:50.110Z,97882.00
2022-10-03T12:08:49.272Z,97878.00
2022-10-03T12:11:28.198Z,97884.00
2022-10-03T12:14:11.740Z,97879.00
2022-10-03T12:17:06.119Z,97881.00
2022-10-03T12:19:54.646Z,97876.00
2022-10-03T12:22:50.105Z,97878.00
2022-10-03T12:25:27.155Z,97872.00
2022-10-03T12:28:24.825Z,97879.00
2022-10-03T12:31:06.017Z,97872.00
2022-10-03T12:33:59.933Z,97882.00
2022-10-03T12:36:41.987Z,97885.00
2022-10-03T12:39:23.720Z,97889.00
2022-10-03T12:42:22.825Z,97877.00
2022-10-03T12:45:31.417Z,97881.00
2022-10-03T12:48:23.210Z,97873.00
2022-10-03T12:51:10.425Z,97878.00
2022-10-03T12:53:49.044Z,97880.00
2022-10-03T12:56:43.582Z,97881.00
2022-10-03T12:59:35.399Z,97880.00
2022-10-03T13:02:22.829Z,97878.00
2022-10-03T13:05:19.809Z,97880.00
2022-10-03T13:08:33.023Z,97886.00
2022-10-03T13:11:32.535Z,97879.00
2022-10-03T13:14:23.564Z,97876.00
2022-10-03T13:17:20.612Z,97879.00
2022-10-03T13:20:06.470Z,97872.00
2022-10-03T13:23:07.632Z,97866.00
2022-10-03T13:25:53.071Z,97858.00
2022-10-03T13:28:53.247Z,97869.00
2022-10-03T13:31:26.869Z,97859.00
2022-10-03T13:34:01.589Z,97857.00
2022-10-03T13:36:42.237Z,97864.00
2022-10-03T13:39:21.654Z,97863.00
2022-10-03T13:42:13.500Z,97863.00
2022-10-03T13:44:55.837Z,97861.00
2022-10-03T13:47:55.731Z,97864.00
2022-10-03T13:50:32.359Z,97854.00
2022-10-03T13:53:05.858Z,97864.00
2022-10-03T13:55:46.381Z,97856.00
2022-10-03T13:58:53.909Z,97853.00
2022-10-03T14:01:36.826Z,97854.00
2022-10-03T14:04:28.390Z,97846.00
2022-10-03T14:07:18.231Z,97835.00
2022-10-03T14:10:08.828Z,97845.00
2022-10-03T14:12:58.278Z,97839.00
2022-10-03T14:15:58.926Z,97839.00
2022-10-03T14:18:46.842Z,97846.00
2022-10-03T14:21:25.424Z,97844.00
2022-10-03T14:24:22.368Z,97843.00
2022-10-03T14:27:10.449Z,97846.00
2022-10-03T14:30:11.169Z,97847.00
2022-10-03T14:33:34.235Z,97840.00
2022-10-03T14:36:24.250Z,97846.00
2022-10-03T14:39:26.833Z,97850.00
2022-10-03T14:42:15.900Z,97848.00
2022-10-03T14:44:56.880Z,97859.00
2022-10-03T14:47:24.340Z,97850.00
2022-10-03T14:49:59.840Z,97849.00
2022-10-03T14:52:52.412Z,97844.00
2022-10-03T14:55:30.237Z,97844.00
2022-10-03T14:58:11.787Z,97842.00
2022-10-03T15:00:55.319Z,97839.00
2022-10-03T15:03:28.845Z,97844.00
2022-10-03T15:06:10.721Z,97833.00
2022-10-03T15:08:46.842Z,97832.00
2022-10-03T15:11:17.509Z,97831.00
2022-10-03T15:13:51.666Z,97835.00
2022-10-03T15:16:21.890Z,97833.00
2022-10-03T15:19:07.399Z,97828.00
2022-10-03T15:21:35.231Z,97831.00
2022-10-03T15:24:07.272Z,97829.00
2022-10-03T15:26:36.965Z,97833.00
2022-10-03T15:29:14.536Z,97824.00
2022-10-03T15:31:46.336Z,97828.00
2022-10-03T15:34:26.015Z,97821.00
2022-10-03T15:37:04.291Z,97826.00
2022-10-03T15:39:37.863Z,97822.00
2022-10-03T15:42:10.606Z,97817.00
2022-10-03T15:44:53.811Z,97822.00
2022-10-03T15:47:22.681Z,97831.00
2022-10-03T15:49:56.926Z,97834.00
2022-10-03T15:52:40.151Z,97833.00
2022-10-03T15:55:14.182Z,97828.00
2022-10-03T15:57:49.167Z,97834.00
2022-10-03T16:00:28.182Z,97827.00
2022-10-03T16:03:06.311Z,97828.00
2022-10-03T16:05:33.938Z,97820.00
2022-10-03T16:08:10.553Z,97824.00
2022-10-03T16:10:48.707Z,97817.00
2022-10-03T16:13:44.844Z,97822.00
2022-10-03T16:16:41.272Z,97826.00
2022-10-03T16:19:42.143Z,97830.00
2022-10-03T16:22:29.363Z,97827.00
2022-10-03T16:25:11.093Z,97832.00
2022-10-03T16:27:53.284Z,97835.00
2022-10-03T16:30:24.461Z,97831.00
2022-10-03T16:33:09.535Z,97830.00
2022-10-03T16:35:41.570Z,97821.00
2022-10-03T16:38:29.225Z,97829.00
2022-10-03T16:41:01.051Z,97831.00
2022-10-03T16:43:33.284Z,97826.00
2022-10-03T16:46:04.810Z,97834.00
2022-10-03T16:48:52.538Z,97836.00
2022-10-03T16:51:21.981Z,97831.00
2022-10-03T16:53:52.733Z,97830.00
2022-10-03T16:56:30.230Z,97833.00
2022-10-03T16:59:06.485Z,97825.00
2022-10-03T17:01:44.370Z,97835.00
2022-10-03T17:04:15.603Z,97831.00
2022-10-03T17:06:56.446Z,97828.00
2022-10-03T17:09:46.089Z,97837.00
2022-10-03T17:12:39.471Z,97835.00
2022-10-03T17:15:21.315Z,97845.00
2022-10-03T17:18:00.145Z,97840.00
2022-10-03T17:20:47.917Z,97839.00
2022-10-03T17:23:22.378Z,97836.00
2022-10-03T17:26:39.284Z,97843.00
2022-10-03T17:29:25.476Z,97840.00
2022-10-03T17:32:20.509Z,97832.00
2022-10-03T17:35:10.949Z,97828.00
2022-10-03T17:38:30.378Z,97829.00
2022-10-03T17:41:24.552Z,97819.00
2022-10-03T17:44:17.496Z,97835.00
2022-10-03T17:47:02.746Z,97833.00
2022-10-03T17:49:58.233Z,97840.00
2022-10-03T17:52:26.196Z,97835.00
2022-10-03T17:55:02.859Z,97841.00
2022-10-03T17:57:39.441Z,97846.00
2022-10-03T18:00:38.344Z,97852.00
2022-10-03T18:03:22.864Z,97844.00
2022-10-03T18:05:54.600Z,97847.00
2022-10-03T18:08:29.271Z,97852.00
2022-10-03T18:11:02.474Z,97860.00
2022-10-03T18:13:45.181Z,97868.00
2022-10-03T18:16:19.245Z,97867.00
2022-10-03T18:19:05.888Z,97862.00
2022-10-03T18:22:05.058Z,97864.00
2022-10-03T18:25:37.447Z,97861.00
2022-10-03T18:28:12.829Z,97854.00
2022-10-03T18:31:03.895Z,97865.00
2022-10-03T18:34:11.550Z,97862.00
2022-10-03T18:36:50.874Z,97850.00
2022-10-03T18:39:23.521Z,97857.00
2022-10-03T18:41:55.537Z,97854.00
2022-10-03T18:44:24.840Z,97857.00
2022-10-03T18:47:20.286Z,97854.00
2022-10-03T18:50:14.209Z,97845.00
2022-10-03T18:52:50.423Z,97857.00
2022-10-03T18:55:36.327Z,97855.00
2022-10-03T18:58:20.223Z,97855.00
2022-10-03T19:01:12.946Z,97863.00
2022-10-03T19:03:53.007Z,97853.00
2022-10-03T19:06:29.538Z,97856.00
2022-10-03T19:09:19.461Z,97858.00
2022-10-03T19:11:56.606Z,97859.00
2022-10-03T19:14:35.383Z,97844.00
2022-10-03T19:17:36.139Z,97855.00
2022-10-03T19:20:27.197Z,97864.00
2022-10-03T19:23:19.849Z,97862.00
2022-10-03T19:25:56.511Z,97853.00
2022-10-03T19:28:32.250Z,97851.00
2022-10-03T19:31:25.099Z,97851.00
2022-10-03T19:34:05.258Z,97860.00
2022-10-03T19:36:36.883Z,97858.00
2022-10-03T19:39:05.120Z,97846.00
2022-10-03T19:41:42.225Z,97853.00
2022-10-03T19:44:22.755Z,97864.00
2022-10-03T19:47:21.005Z,97850.00
2022-10-03T19:50:19.092Z,97861.00
2022-10-03T19:52:46.041Z,97867.00
2022-10-03T19:55:40.765Z,97861.00
2022-10-03T19:58:07.468Z,97861.00
2022-10-03T20:00:39.279Z,97855.00
2022-10-03T20:03:21.486Z,97861.00
2022-10-03T20:06:12.037Z,97864.00
2022-10-03T20:08:59.930Z,97854.00
2022-10-03T20:11:49.425Z,97845.00
2022-10-03T20:14:28.448Z,97853.00
2022-10-03T20:17:02.080Z,97853.00
2022-10-03T20:19:54.670Z,97849.00
2022-10-03T20:22:28.367Z,97848.00
2022-10-03T20:24:55.836Z,97853.00
2022-10-03T20:27:38.277Z,97844.00
2022-10-03T20:30:25.707Z,97839.00
2022-10-03T20:32:56.181Z,97832.00
2022-10-03T20:35:43.939Z,97839.00
2022-10-03T20:38:36.610Z,97844.00
2022-10-03T20:41:43.046Z,97833.00
2022-10-03T20:44:55.448Z,97829.00
2022-10-03T20:47:41.024Z,97838.00
2022-10-03T20:50:41.294Z,97836.00
2022-10-03T20:53:22.317Z,97846.00
2022-10-03T20:56:09.499Z,97849.00
2022-10-03T20:58:51.276Z,97845.00
2022-10-03T21:01:23.515Z,97845.00
2022-10-03T21:04:18.131Z,97846.00
2022-10-03T21:07:11.904Z,97841.00
2022-10-03T21:09:50.862Z,97832.00
2022-10-03T21:12:28.131Z,97840.00
2022-10-03T21:15:12.539Z,97842.00
2022-10-03T21:17:44.794Z,97841.00
2022-10-03T21:20:19.088Z,97837.00
2022-10-03T21:22:51.355Z,97840.00
2022-10-03T21:25:28.257Z,97838.00
2022-10-03T21:27:57.335Z,97840.00
2022-10-03T21:31:11.090Z,97842.00
2022-10-03T21:34:04.670Z,97834.00
2022-10-03T21:36:51.354Z,97841.00
2022-10-03T21:39:29.341Z,97837.00
2022-10-03T21:42:28.067Z,97842.00
2022-10-03T21:45:06.755Z,97831.00
2022-10-03T21:47:49.319Z,97840.00
2022-10-03T21:50:32.014Z,97839.00
2022-10-03T21:53:44.682Z,97839.00
2022-10-03T21:56:26.301Z,97836.00
2022-10-03T21:59:33.039Z,97832.00
2022-10-03T22:02:22.203Z,97848.00
2022-10-03T22:05:02.061Z,97838.00
2022-10-03T22:07:39.804Z,97831.00
2022-10-03T22:10:19.170Z,97825.00
2022-10-03T22:12:52.693Z,97832.00
2022-10-03T22:15:25.778Z,97826.00
2022-10-03T22:17:59.663Z,97826.00
2022-10-03T22:20:30.514Z,97818.00
2022-10-03T22:23:43.445Z,97811.00
2022-10-03T22:26:26.818Z,97812.00
2022-10-03T22:29:11.999Z,97814.00
2022-10-03T22:31:56.843Z,97806.00
2022-10-03T22:34:44.639Z,97804.00
2022-10-03T22:37:13.642Z,97788.00
2022-10-03T22:39:40.984Z,97795.00
2022-10-03T22:42:08.470Z,97788.00
2022-10-03T22:44:40.553Z,97795.00
2022-10-03T22:47:19.529Z,97785.00
2022-10-03T22:49:49.005Z,97796.00
2022-10-03T22:52:27.835Z,97788.00
2022-10-03T22:54:56.503Z,97787.00
2022-10-03T22:57:25.199Z,97789.00
2022-10-03T23:00:01.038Z,97783.00
2022-10-03T23:02:42.508Z,97781.00
2022-10-03T23:05:35.887Z,97784.00
2022-10-03T23:08:49.677Z,97791.00
2022-10-03T23:11:23.966Z,97786.00
2022-10-03T23:13:51.407Z,97786.00
2022-10-03T23:16:55.986Z,97785.00
2022-10-03T23:20:05.505Z,97789.00
2022-10-03T23:22:35.502Z,97780.00
2022-10-03T23:25:08.166Z,97792.00
2022-10-03T23:28:15.628Z,97794.00
2022-10-03T23:30:51.965Z,97788.00
2022-10-03T23:33:38.696Z,97798.00
2022-10-03T23:36:19.299Z,97791.00
2022-10-03T23:38:45.946Z,97789.00
2022-10-03T23:41:50.224Z,97792.00
2022-10-03T23:44:39.447Z,97793.00
2022-10-03T23:47:11.305Z,97798.00
2022-10-03T23:49:39.940Z,97795.00
2022-10-03T23:52:15.362Z,97793.00
2022-10-03T23:54:43.072Z,97793.00
2022-10-03T23:57:10.084Z,97792.00
2022-10-03T23:59:39.128Z,97794.00
